Time;durP1;ratioP1;P1;durP2;ratioP2;P2;SDS_P1;SDS_P2;PMS_P1;PMS_P2;Temp;Humidity;BMP_temperature;BMP_pressure;BME280_temperature;BME280_humidity;BME280_pressure;Samples;Min_cycle;Max_cycle;Signal;HPM_P1;HPM_P2
2023/06/17 00:01:15;;;;;;;;;;;;;;;;;;5054323;28;19951;-83
2023/06/17 00:03:43;;;;;;;;;;;;;;;;;;5071786;28;19929;-83
2023/06/17 00:06:10;;;;;;;;;;;;;;;;;;5059056;28;20320;-84
2023/06/17 00:08:38;;;;;;;;;;;;;;;;;;5056932;28;19940;-82
2023/06/17 00:11:10;;;;;;;;;;;;;;;;;;5054367;28;19924;-84
2023/06/17 00:13:38;;;;;;;;;;;;;;;;;;5062436;28;19931;-84
2023/06/17 00:16:06;;;;;;;;;;;;;;;;;;5086939;28;20626;-84
2023/06/17 00:18:33;;;;;;;;;;;;;;;;;;5070475;28;19925;-84
2023/06/17 00:21:08;;;;;;;;;;;;;;;;;;5055111;28;19924;-84
2023/06/17 00:23:36;;;;;;;;;;;;;;;;;;5031680;28;19928;-84
2023/06/17 00:26:04;;;;;;;;;;;;;;;;;;5053400;28;20669;-84
2023/06/17 00:28:36;;;;;;;;;;;;;;;;;;5039979;28;19925;-84
2023/06/17 00:31:04;;;;;;;;;;;;;;;;;;5049541;28;19936;-85
2023/06/17 00:33:31;;;;;;;;;;;;;;;;;;5050043;28;19929;-84
2023/06/17 00:36:00;;;;;;;;;;;;;;;;;;5049569;28;19925;-85
2023/06/17 00:38:29;;;;;;;;;;;;;;;;;;5051756;28;20407;-84
2023/06/17 00:40:56;;;;;;;;;;;;;;;;;;5049830;28;19931;-85
2023/06/17 00:43:24;;;;;;;;;;;;;;;;;;5049969;28;19932;-84
2023/06/17 00:45:56;;;;;;;;;;;;;;;;;;5052102;28;20274;-84
2023/06/17 00:48:24;;;;;;;;;;;;;;;;;;5048591;28;19928;-84
2023/06/17 00:50:52;;;;;;;;;;;;;;;;;;5045988;28;19925;-84
2023/06/17 00:53:20;;;;;;;;;;;;;;;;;;5051964;28;19929;-85
2023/06/17 00:55:47;;;;;;;;;;;;;;;;;;5068480;28;20038;-85
2023/06/17 00:58:16;;;;;;;;;;;;;;;;;;5068935;28;19947;-85
2023/06/17 01:00:43;;;;;;;;;;;;;;;;;;5069942;28;19932;-84
2023/06/17 01:03:11;;;;;;;;;;;;;;;;;;5066283;28;19936;-85
2023/06/17 01:05:40;;;;;;;;;;;;;;;;;;5031280;28;19932;-84
2023/06/17 01:08:09;;;;;;;;;;;;;;;;;;5030080;28;19925;-85
2023/06/17 01:10:37;;;;;;;;;;;;;;;;;;5040189;28;20406;-84
2023/06/17 01:13:05;;;;;;;;;;;;;;;;;;5049673;28;19933;-85
2023/06/17 01:15:33;;;;;;;;;;;;;;;;;;5049353;28;19929;-85
2023/06/17 01:18:07;;;;;;;;;;;;;;;;;;5047702;28;19933;-84
2023/06/17 01:20:35;;;;;;;;;;;;;;;;;;5052260;28;19932;-85
2023/06/17 01:23:03;;;;;;;;;;;;;;;;;;5055012;28;19925;-85
2023/06/17 01:25:31;;;;;;;;;;;;;;;;;;5050622;28;20767;-85
2023/06/17 01:28:00;;;;;;;;;;;;;;;;;;5078362;28;19929;-84
2023/06/17 01:30:31;;;;;;;;;;;;;;;;;;5039638;28;19924;-85
2023/06/17 01:32:59;;;;;;;;;;;;;;;;;;5053086;28;19924;-85
2023/06/17 01:35:26;;;;;;;;;;;;;;;;;;5050673;28;19928;-85
2023/06/17 01:37:54;;;;;;;;;;;;;;;;;;5049658;28;19932;-85
2023/06/17 01:40:26;;;;;;;;;;;;;;;;;;5050486;28;19929;-85
2023/06/17 01:42:54;;;;;;;;;;;;;;;;;;5053083;28;19925;-85
2023/06/17 01:45:22;;;;;;;;;;;;;;;;;;5053049;28;19925;-85
2023/06/17 01:47:49;;;;;;;;;;;;;;;;;;5060764;28;20680;-84
2023/06/17 01:50:19;;;;;;;;;;;;;;;;;;5040937;28;19936;-84
2023/06/17 01:52:46;;;;;;;;;;;;;;;;;;5073309;28;19932;-84
2023/06/17 01:55:14;;;;;;;;;;;;;;;;;;5058481;28;19940;-84
2023/06/17 01:57:41;;;;;;;;;;;;;;;;;;5071488;28;19929;-84
2023/06/17 02:00:12;;;;;;;;;;;;;;;;;;5063400;28;19928;-85
2023/06/17 02:02:39;;;;;;;;;;;;;;;;;;5056522;28;19933;-84
2023/06/17 02:05:07;;;;;;;;;;;;;;;;;;5052736;28;20391;-84
2023/06/17 02:07:35;;;;;;;;;;;;;;;;;;5065866;28;19928;-85
2023/06/17 02:10:07;;;;;;;;;;;;;;;;;;5060380;28;19924;-84
2023/06/17 02:12:35;;;;;;;;;;;;;;;;;;5069410;28;20308;-85
2023/06/17 02:15:03;;;;;;;;;;;;;;;;;;5056022;28;19935;-85
2023/06/17 02:17:32;;;;;;;;;;;;;;;;;;5063856;28;19935;-84
2023/06/17 02:19:59;;;;;;;;;;;;;;;;;;5047747;28;19925;-84
2023/06/17 02:22:27;;;;;;;;;;;;;;;;;;5078965;28;19928;-84
2023/06/17 02:24:55;;;;;;;;;;;;;;;;;;5042057;28;19947;-84
2023/06/17 02:27:22;;;;;;;;;;;;;;;;;;5077765;28;19929;-85
2023/06/17 02:29:57;;;;;;;;;;;;;;;;;;5055601;28;19929;-84
2023/06/17 02:32:24;;;;;;;;;;;;;;;;;;5059236;28;20385;-84
2023/06/17 02:34:57;;;;;;;;;;;;;;;;;;5044063;28;19928;-84
2023/06/17 02:37:26;;;;;;;;;;;;;;;;;;5082097;28;19959;-85
2023/06/17 02:39:59;;;;;;;;;;;;;;;;;;5072177;28;19947;-85
2023/06/17 02:42:26;;;;;;;;;;;;;;;;;;5068678;28;19924;-84
2023/06/17 02:44:54;;;;;;;;;;;;;;;;;;5060467;28;19936;-84
2023/06/17 02:47:21;;;;;;;;;;;;;;;;;;5067748;28;20323;-85
2023/06/17 02:49:49;;;;;;;;;;;;;;;;;;5033329;28;19925;-85
2023/06/17 02:52:17;;;;;;;;;;;;;;;;;;5034360;28;19932;-85
2023/06/17 02:54:44;;;;;;;;;;;;;;;;;;5060020;28;19932;-85
2023/06/17 02:57:20;;;;;;;;;;;;;;;;;;5052165;28;19925;-85
2023/06/17 02:59:47;;;;;;;;;;;;;;;;;;5036473;28;20312;-85
2023/06/17 03:02:15;;;;;;;;;;;;;;;;;;5060202;28;19924;-85
2023/06/17 03:04:43;;;;;;;;;;;;;;;;;;5056321;28;19931;-83
2023/06/17 03:07:11;;;;;;;;;;;;;;;;;;5058697;28;20295;-83
2023/06/17 03:09:45;;;;;;;;;;;;;;;;;;5070802;28;19936;-84
2023/06/17 03:12:13;;;;;;;;;;;;;;;;;;5071644;28;19936;-85
2023/06/17 03:14:41;;;;;;;;;;;;;;;;;;5071304;28;19932;-84
2023/06/17 03:17:13;;;;;;;;;;;;;;;;;;5044026;28;19936;-84
2023/06/17 03:19:46;;;;;;;;;;;;;;;;;;5074563;28;19936;-85
2023/06/17 03:22:18;;;;;;;;;;;;;;;;;;5031208;28;19955;-84
2023/06/17 03:24:49;;;;;;;;;;;;;;;;;;5031123;28;20392;-84
2023/06/17 03:27:16;;;;;;;;;;;;;;;;;;5031651;28;19925;-85
2023/06/17 03:29:44;;;;;;;;;;;;;;;;;;5034321;28;19940;-84
2023/06/17 03:32:12;;;;;;;;;;;;;;;;;;5054127;28;19929;-85
2023/06/17 03:34:42;;;;;;;;;;;;;;;;;;5059484;28;20307;-83
2023/06/17 03:37:16;;;;;;;;;;;;;;;;;;5057064;28;20220;-85
2023/06/17 03:39:43;;;;;;;;;;;;;;;;;;5060413;28;19925;-85
2023/06/17 03:42:12;;;;;;;;;;;;;;;;;;5059945;28;19924;-84
2023/06/17 03:44:40;;;;;;;;;;;;;;;;;;5067077;28;20288;-85
2023/06/17 03:47:12;;;;;;;;;;;;;;;;;;5061078;28;19956;-85
2023/06/17 03:49:41;;;;;;;;;;;;;;;;;;5059290;28;19925;-86
2023/06/17 03:52:10;;;;;;;;;;;;;;;;;;5055138;28;19925;-85
2023/06/17 03:54:39;;;;;;;;;;;;;;;;;;5050424;28;19936;-84
2023/06/17 03:57:06;;;;;;;;;;;;;;;;;;5052423;28;19951;-85
2023/06/17 03:59:35;;;;;;;;;;;;;;;;;;5051757;28;19932;-84
2023/06/17 04:02:03;;;;;;;;;;;;;;;;;;5050815;28;19931;-85
2023/06/17 04:04:34;;;;;;;;;;;;;;;;;;5053720;28;19948;-85
2023/06/17 04:07:02;;;;;;;;;;;;;;;;;;5071749;28;19932;-85
2023/06/17 04:09:34;;;;;;;;;;;;;;;;;;5039107;28;19947;-85
2023/06/17 04:12:02;;;;;;;;;;;;;;;;;;5053432;28;19925;-85
2023/06/17 04:14:35;;;;;;;;;;;;;;;;;;5049923;28;19924;-86
2023/06/17 04:17:03;;;;;;;;;;;;;;;;;;5059161;28;19924;-85
2023/06/17 04:19:37;;;;;;;;;;;;;;;;;;5054061;28;20408;-85
2023/06/17 04:22:05;;;;;;;;;;;;;;;;;;5065929;28;20285;-86
2023/06/17 04:24:38;;;;;;;;;;;;;;;;;;5055587;28;19925;-84
2023/06/17 04:27:07;;;;;;;;;;;;;;;;;;5066430;28;19928;-86
2023/06/17 04:29:36;;;;;;;;;;;;;;;;;;5055266;28;19929;-86
2023/06/17 04:32:10;;;;;;;;;;;;;;;;;;5055057;28;19951;-86
2023/06/17 04:34:38;;;;;;;;;;;;;;;;;;5061794;28;19925;-85
2023/06/17 04:37:12;;;;;;;;;;;;;;;;;;5070179;28;19929;-85
2023/06/17 04:39:40;;;;;;;;;;;;;;;;;;5057225;28;19939;-85
2023/06/17 04:42:07;;;;;;;;;;;;;;;;;;5055234;28;19929;-86
2023/06/17 04:44:35;;;;;;;;;;;;;;;;;;5056126;28;19936;-85
2023/06/17 04:47:02;;;;;;;;;;;;;;;;;;5050997;28;19928;-85
2023/06/17 04:49:30;;;;;;;;;;;;;;;;;;5058443;28;19933;-85
2023/06/17 04:51:58;;;;;;;;;;;;;;;;;;5058702;28;19932;-85
2023/06/17 04:54:26;;;;;;;;;;;;;;;;;;5058404;28;20344;-85
2023/06/17 04:56:53;;;;;;;;;;;;;;;;;;5060696;28;20296;-85
2023/06/17 04:59:21;;;;;;;;;;;;;;;;;;5055007;28;19936;-85
2023/06/17 05:01:49;;;;;;;;;;;;;;;;;;5049014;28;19924;-84
2023/06/17 05:04:16;;;;;;;;;;;;;;;;;;5043650;28;19932;-85
2023/06/17 05:06:45;;;;;;;;;;;;;;;;;;5050893;28;19932;-85
2023/06/17 05:09:12;;;;;;;;;;;;;;;;;;5080826;28;19924;-84
2023/06/17 05:11:42;;;;;;;;;;;;;;;;;;5052762;28;19936;-85
2023/06/17 05:14:09;;;;;;;;;;;;;;;;;;5049022;28;19924;-85
2023/06/17 05:16:42;;;;;;;;;;;;;;;;;;5049632;28;19936;-85
2023/06/17 05:19:10;;;;;;;;;;;;;;;;;;5044089;28;20740;-85
2023/06/17 05:21:37;;;;;;;;;;;;;;;;;;5049777;28;19932;-86
2023/06/17 05:24:05;;;;;;;;;;;;;;;;;;5043355;28;19929;-86
2023/06/17 05:26:33;;;;;;;;;;;;;;;;;;5057626;28;19943;-85
2023/06/17 05:29:01;;;;;;;;;;;;;;;;;;5055786;28;20400;-85
2023/06/17 05:31:28;;;;;;;;;;;;;;;;;;5051705;28;19924;-84
2023/06/17 05:34:01;;;;;;;;;;;;;;;;;;5044799;28;19936;-85
2023/06/17 05:36:29;;;;;;;;;;;;;;;;;;5050905;28;19932;-85
2023/06/17 05:39:01;;;;;;;;;;;;;;;;;;5051037;28;20644;-85
2023/06/17 05:41:29;;;;;;;;;;;;;;;;;;5041591;28;19925;-85
2023/06/17 05:43:57;;;;;;;;;;;;;;;;;;5052531;28;19928;-84
2023/06/17 05:46:24;;;;;;;;;;;;;;;;;;5067739;28;19936;-85
2023/06/17 05:48:52;;;;;;;;;;;;;;;;;;5052371;28;19929;-85
2023/06/17 05:51:20;;;;;;;;;;;;;;;;;;5043977;28;19925;-85
2023/06/17 05:53:53;;;;;;;;;;;;;;;;;;5049950;28;19953;-84
2023/06/17 05:56:21;;;;;;;;;;;;;;;;;;5055603;28;20004;-84
2023/06/17 05:58:48;;;;;;;;;;;;;;;;;;5044007;28;20284;-85
2023/06/17 06:01:25;;;;;;;;;;;;;;;;;;5018362;28;19941;-85
2023/06/17 06:03:53;;;;;;;;;;;;;;;;;;5018633;28;20284;-84
2023/06/17 06:06:20;;;;;;;;;;;;;;;;;;5021841;28;19930;-85
2023/06/17 06:08:48;;;;;;;;;;;;;;;;;;5022003;28;20305;-84
2023/06/17 06:11:20;;;;;;;;;;;;;;;;;;5024676;28;20004;-83
2023/06/17 06:13:48;;;;;;;;;;;;;;;;;;5040126;28;19936;-83
2023/06/17 06:16:16;;;;;;;;;;;;;;;;;;5025925;28;19929;-83
2023/06/17 06:18:43;;;;;;;;;;;;;;;;;;5021919;28;20374;-83
2023/06/17 06:21:11;;;;;;;;;;;;;;;;;;5017404;28;19929;-83
2023/06/17 06:23:43;;;;;;;;;;;;;;;;;;5018624;28;20574;-83
2023/06/17 06:26:11;;;;;;;;;;;;;;;;;;5020737;28;19937;-85
2023/06/17 06:28:38;;;;;;;;;;;;;;;;;;5025130;28;19929;-86
2023/06/17 06:31:06;;;;;;;;;;;;;;;;;;5023327;28;19926;-85
2023/06/17 06:33:38;;;;;;;;;;;;;;;;;;5027701;28;19936;-84
2023/06/17 06:36:07;;;;;;;;;;;;;;;;;;5020948;28;19949;-84
2023/06/17 06:38:35;;;;;;;;;;;;;;;;;;5027361;28;19925;-84
2023/06/17 06:41:03;;;;;;;;;;;;;;;;;;5023066;28;19936;-83
2023/06/17 06:43:33;;;;;;;;;;;;;;;;;;5027897;28;19929;-84
2023/06/17 06:46:03;;;;;;;;;;;;;;;;;;5023664;28;20266;-84
2023/06/17 06:48:32;;;;;;;;;;;;;;;;;;5034057;28;19944;-83
2023/06/17 06:51:01;;;;;;;;;;;;;;;;;;5029784;28;19925;-85
2023/06/17 06:53:29;;;;;;;;;;;;;;;;;;5027468;28;20373;-85
2023/06/17 06:55:57;;;;;;;;;;;;;;;;;;5020801;28;19925;-83
2023/06/17 06:58:25;;;;;;;;;;;;;;;;;;5021631;28;19932;-83
2023/06/17 07:00:57;;;;;;;;;;;;;;;;;;5034743;28;19937;-83
2023/06/17 07:03:25;;;;;;;;;;;;;;;;;;5028104;28;19925;-85
2023/06/17 07:05:53;;;;;;;;;;;;;;;;;;5044086;28;20389;-83
2023/06/17 07:08:21;;;;;;;;;;;;;;;;;;5023104;28;19936;-83
2023/06/17 07:10:48;;;;;;;;;;;;;;;;;;5022636;28;20377;-83
2023/06/17 07:13:17;;;;;;;;;;;;;;;;;;5024754;28;20364;-84
2023/06/17 07:15:46;;;;;;;;;;;;;;;;;;5040903;28;19925;-83
2023/06/17 07:18:14;;;;;;;;;;;;;;;;;;5029102;28;20308;-84
2023/06/17 07:20:42;;;;;;;;;;;;;;;;;;5021396;28;19926;-83
2023/06/17 07:23:09;;;;;;;;;;;;;;;;;;5022065;28;20012;-84
2023/06/17 07:25:38;;;;;;;;;;;;;;;;;;5040742;28;20463;-84
2023/06/17 07:28:07;;;;;;;;;;;;;;;;;;5020826;28;19929;-83
2023/06/17 07:30:34;;;;;;;;;;;;;;;;;;5037858;28;19925;-86
2023/06/17 07:33:02;;;;;;;;;;;;;;;;;;5026515;28;19932;-84
2023/06/17 07:35:30;;;;;;;;;;;;;;;;;;5034886;28;20304;-83
2023/06/17 07:37:57;;;;;;;;;;;;;;;;;;5038460;28;19979;-84
2023/06/17 07:40:25;;;;;;;;;;;;;;;;;;5025133;28;19929;-87
2023/06/17 07:42:52;;;;;;;;;;;;;;;;;;5037148;28;19939;-82
2023/06/17 07:45:20;;;;;;;;;;;;;;;;;;5024042;28;19925;-82
2023/06/17 07:47:47;;;;;;;;;;;;;;;;;;5024538;28;19926;-82
2023/06/17 07:50:15;;;;;;;;;;;;;;;;;;5022552;28;19932;-86
2023/06/17 07:52:50;;;;;;;;;;;;;;;;;;5021914;28;19929;-82
2023/06/17 07:55:22;;;;;;;;;;;;;;;;;;5027435;28;20586;-81
2023/06/17 07:57:50;;;;;;;;;;;;;;;;;;5037575;28;19932;-84
2023/06/17 08:00:22;;;;;;;;;;;;;;;;;;5037194;28;20349;-83
2023/06/17 08:02:50;;;;;;;;;;;;;;;;;;5039447;28;19926;-83
2023/06/17 08:05:17;;;;;;;;;;;;;;;;;;5024659;28;19956;-83
2023/06/17 08:07:45;;;;;;;;;;;;;;;;;;5021716;28;19929;-83
2023/06/17 08:10:13;;;;;;;;;;;;;;;;;;5023590;28;19929;-81
2023/06/17 08:12:46;;;;;;;;;;;;;;;;;;5022910;28;20474;-85
2023/06/17 08:15:13;;;;;;;;;;;;;;;;;;5019874;28;19929;-83
2023/06/17 08:17:42;;;;;;;;;;;;;;;;;;5020862;28;20511;-83
2023/06/17 08:20:15;;;;;;;;;;;;;;;;;;5025473;28;19940;-84
2023/06/17 08:22:43;;;;;;;;;;;;;;;;;;5037474;28;19936;-83
2023/06/17 08:25:10;;;;;;;;;;;;;;;;;;5020050;28;19925;-84
2023/06/17 08:27:38;;;;;;;;;;;;;;;;;;5020092;28;19929;-82
2023/06/17 08:30:06;;;;;;;;;;;;;;;;;;5023860;28;19929;-83
2023/06/17 08:32:33;;;;;;;;;;;;;;;;;;5021392;28;20365;-83
2023/06/17 08:35:05;;;;;;;;;;;;;;;;;;5024121;28;19925;-83
2023/06/17 08:37:33;;;;;;;;;;;;;;;;;;5025716;28;19929;-83
2023/06/17 08:40:01;;;;;;;;;;;;;;;;;;5018378;28;19929;-82
2023/06/17 08:42:29;;;;;;;;;;;;;;;;;;5023027;28;19929;-82
2023/06/17 08:45:02;;;;;;;;;;;;;;;;;;5024789;28;20404;-82
2023/06/17 08:47:29;;;;;;;;;;;;;;;;;;5042514;28;19940;-80
2023/06/17 08:49:57;;;;;;;;;;;;;;;;;;5023652;28;19934;-83
2023/06/17 08:52:24;;;;;;;;;;;;;;;;;;5019182;28;19941;-83
2023/06/17 08:54:52;;;;;;;;;;;;;;;;;;5024242;28;20428;-83
2023/06/17 08:57:19;;;;;;;;;;;;;;;;;;5026553;28;19948;-81
2023/06/17 08:59:47;;;;;;;;;;;;;;;;;;5021246;28;19929;-82
2023/06/17 09:02:15;;;;;;;;;;;;;;;;;;5021903;28;19952;-81
2023/06/17 09:04:43;;;;;;;;;;;;;;;;;;5024277;28;19974;-83
2023/06/17 09:07:11;;;;;;;;;;;;;;;;;;5023437;28;20277;-82
2023/06/17 09:09:39;;;;;;;;;;;;;;;;;;5025212;28;19925;-82
2023/06/17 09:12:12;;;;;;;;;;;;;;;;;;5024898;28;19932;-84
2023/06/17 09:14:39;;;;;;;;;;;;;;;;;;5013219;28;19925;-86
2023/06/17 09:17:12;;;;;;;;;;;;;;;;;;5021798;28;19932;-86
2023/06/17 09:19:45;;;;;;;;;;;;;;;;;;5009173;28;19933;-84
2023/06/17 09:22:13;;;;;;;;;;;;;;;;;;5028119;28;19933;-84
2023/06/17 09:24:40;;;;;;;;;;;;;;;;;;5008987;28;21254;-85
2023/06/17 09:27:08;;;;;;;;;;;;;;;;;;5010589;28;19929;-84
2023/06/17 09:29:35;;;;;;;;;;;;;;;;;;5021872;28;19956;-85
2023/06/17 09:32:03;;;;;;;;;;;;;;;;;;5021172;28;19936;-83
2023/06/17 09:34:31;;;;;;;;;;;;;;;;;;5024715;28;20384;-85
2023/06/17 09:37:00;;;;;;;;;;;;;;;;;;5020939;28;19930;-84
2023/06/17 09:39:27;;;;;;;;;;;;;;;;;;5027142;28;19934;-83
2023/06/17 09:41:55;;;;;;;;;;;;;;;;;;5028687;28;19925;-84
2023/06/17 09:44:23;;;;;;;;;;;;;;;;;;5023887;28;19932;-85
2023/06/17 09:46:51;;;;;;;;;;;;;;;;;;5025432;28;19925;-85
2023/06/17 09:49:23;;;;;;;;;;;;;;;;;;5021560;28;20456;-84
2023/06/17 09:51:51;;;;;;;;;;;;;;;;;;5023456;28;20301;-85
2023/06/17 09:54:19;;;;;;;;;;;;;;;;;;5019828;28;19925;-85
2023/06/17 09:56:46;;;;;;;;;;;;;;;;;;5023258;28;19932;-86
2023/06/17 09:59:21;;;;;;;;;;;;;;;;;;5037839;28;19948;-84
2023/06/17 10:01:49;;;;;;;;;;;;;;;;;;5024988;28;20431;-84
2023/06/17 10:04:21;;;;;;;;;;;;;;;;;;5018089;28;19925;-85
2023/06/17 10:06:49;;;;;;;;;;;;;;;;;;5022765;28;19956;-86
2023/06/17 10:09:17;;;;;;;;;;;;;;;;;;5028800;28;19925;-83
2023/06/17 10:11:49;;;;;;;;;;;;;;;;;;5024601;28;20301;-84
2023/06/17 10:14:17;;;;;;;;;;;;;;;;;;5027122;28;19925;-83
2023/06/17 10:16:47;;;;;;;;;;;;;;;;;;5023047;28;19925;-85
2023/06/17 10:19:16;;;;;;;;;;;;;;;;;;5022034;28;19925;-85
2023/06/17 10:21:44;;;;;;;;;;;;;;;;;;5024859;28;19925;-85
2023/06/17 10:24:11;;;;;;;;;;;;;;;;;;5028666;28;19929;-83
2023/06/17 10:26:39;;;;;;;;;;;;;;;;;;5022128;28;19940;-83
2023/06/17 10:29:08;;;;;;;;;;;;;;;;;;5026163;28;20439;-84
2023/06/17 10:31:37;;;;;;;;;;;;;;;;;;4996860;28;19936;-86
2023/06/17 10:34:05;;;;;;;;;;;;;;;;;;5021775;28;20373;-83
2023/06/17 10:36:33;;;;;;;;;;;;;;;;;;5011849;28;20432;-83
2023/06/17 10:39:01;;;;;;;;;;;;;;;;;;5010180;28;20567;-85
2023/06/17 10:41:28;;;;;;;;;;;;;;;;;;5015349;28;19940;-82
2023/06/17 10:43:56;;;;;;;;;;;;;;;;;;5014794;28;19933;-84
2023/06/17 10:46:23;;;;;;;;;;;;;;;;;;5011824;28;19932;-84
2023/06/17 10:48:51;;;;;;;;;;;;;;;;;;5015362;28;21741;-85
2023/06/17 10:51:20;;;;;;;;;;;;;;;;;;5015791;28;20411;-82
2023/06/17 10:53:47;;;;;;;;;;;;;;;;;;5023111;28;19933;-84
2023/06/17 10:56:15;;;;;;;;;;;;;;;;;;5011427;28;19940;-84
2023/06/17 10:58:42;;;;;;;;;;;;;;;;;;5012487;28;19933;-85
2023/06/17 11:01:11;;;;;;;;;;;;;;;;;;5013990;28;19940;-83
2023/06/17 11:03:38;;;;;;;;;;;;;;;;;;5018520;28;19933;-83
2023/06/17 11:06:11;;;;;;;;;;;;;;;;;;5016410;28;19933;-84
2023/06/17 11:08:38;;;;;;;;;;;;;;;;;;5007628;28;19940;-83
2023/06/17 11:11:06;;;;;;;;;;;;;;;;;;5011350;28;19940;-86
2023/06/17 11:13:34;;;;;;;;;;;;;;;;;;5009676;28;19933;-84
2023/06/17 11:16:01;;;;;;;;;;;;;;;;;;5006301;28;19944;-85
2023/06/17 11:18:29;;;;;;;;;;;;;;;;;;5008473;28;19925;-82
2023/06/17 11:20:57;;;;;;;;;;;;;;;;;;5012540;28;19929;-82
2023/06/17 11:23:26;;;;;;;;;;;;;;;;;;5012720;28;19940;-86
2023/06/17 11:25:58;;;;;;;;;;;;;;;;;;5016871;28;19952;-84
2023/06/17 11:28:26;;;;;;;;;;;;;;;;;;5009934;28;20396;-88
2023/06/17 11:30:54;;;;;;;;;;;;;;;;;;5003848;28;19933;-89
2023/06/17 11:33:21;;;;;;;;;;;;;;;;;;5034314;28;19935;-84
2023/06/17 11:35:49;;;;;;;;;;;;;;;;;;5032679;28;19933;-88
2023/06/17 11:38:17;;;;;;;;;;;;;;;;;;5046064;28;19952;-90
2023/06/17 11:40:45;;;;;;;;;;;;;;;;;;5039518;28;19933;-89
2023/06/17 11:43:12;;;;;;;;;;;;;;;;;;5035235;28;19933;-93
2023/06/17 11:45:40;;;;;;;;;;;;;;;;;;5035447;28;19933;-83
2023/06/17 11:48:07;;;;;;;;;;;;;;;;;;5031387;28;19932;-85
2023/06/17 11:50:35;;;;;;;;;;;;;;;;;;5034904;28;19933;-87
2023/06/17 11:53:03;;;;;;;;;;;;;;;;;;5027949;28;19940;-85
2023/06/17 11:55:31;;;;;;;;;;;;;;;;;;5035937;28;19932;-90
2023/06/17 11:57:59;;;;;;;;;;;;;;;;;;5028283;28;21273;-88
2023/06/17 12:00:26;;;;;;;;;;;;;;;;;;5035363;28;19943;-88
2023/06/17 12:02:59;;;;;;;;;;;;;;;;;;5048038;28;19933;-83
2023/06/17 12:05:26;;;;;;;;;;;;;;;;;;5034420;28;19933;-85
2023/06/17 12:07:54;;;;;;;;;;;;;;;;;;5030276;28;19940;-87
2023/06/17 12:10:22;;;;;;;;;;;;;;;;;;5026220;28;19952;-86
2023/06/17 12:12:55;;;;;;;;;;;;;;;;;;5034103;28;19932;-86
2023/06/17 12:15:29;;;;;;;;;;;;;;;;;;5034175;28;19931;-86
2023/06/17 12:17:56;;;;;;;;;;;;;;;;;;5029067;28;19952;-85
2023/06/17 12:20:24;;;;;;;;;;;;;;;;;;5031898;28;21698;-86
2023/06/17 12:22:56;;;;;;;;;;;;;;;;;;5026199;28;19933;-90
2023/06/17 12:25:24;;;;;;;;;;;;;;;;;;5026488;28;19933;-84
2023/06/17 12:27:51;;;;;;;;;;;;;;;;;;5023789;28;19932;-86
2023/06/17 12:30:19;;;;;;;;;;;;;;;;;;4997785;28;19933;-82
2023/06/17 12:32:51;;;;;;;;;;;;;;;;;;5026085;28;20814;-83
2023/06/17 12:35:19;;;;;;;;;;;;;;;;;;5030048;28;19933;-83
2023/06/17 12:37:48;;;;;;;;;;;;;;;;;;5029584;28;19940;-85
2023/06/17 12:40:16;;;;;;;;;;;;;;;;;;5026643;28;19933;-83
2023/06/17 12:42:43;;;;;;;;;;;;;;;;;;5035972;28;20651;-83
2023/06/17 12:45:12;;;;;;;;;;;;;;;;;;5026387;28;19940;-83
2023/06/17 12:47:40;;;;;;;;;;;;;;;;;;5030055;28;19932;-82
2023/06/17 12:50:08;;;;;;;;;;;;;;;;;;5019695;28;20388;-82
2023/06/17 12:52:36;;;;;;;;;;;;;;;;;;5032193;28;19935;-84
2023/06/17 12:55:04;;;;;;;;;;;;;;;;;;5024371;28;19939;-83
2023/06/17 12:57:32;;;;;;;;;;;;;;;;;;5026664;28;19948;-82
2023/06/17 13:00:00;;;;;;;;;;;;;;;;;;5024962;28;20371;-83
2023/06/17 13:02:31;;;;;;;;;;;;;;;;;;5025739;28;20474;-86
2023/06/17 13:05:03;;;;;;;;;;;;;;;;;;5015933;28;19929;-82
2023/06/17 13:07:31;;;;;;;;;;;;;;;;;;5032467;28;19939;-82
2023/06/17 13:09:58;;;;;;;;;;;;;;;;;;5022180;28;20152;-83
2023/06/17 13:12:26;;;;;;;;;;;;;;;;;;5017177;28;19940;-82
2023/06/17 13:14:54;;;;;;;;;;;;;;;;;;5019311;28;20699;-84
2023/06/17 13:17:21;;;;;;;;;;;;;;;;;;5025541;28;20497;-83
2023/06/17 13:19:54;;;;;;;;;;;;;;;;;;5020538;28;20011;-81
2023/06/17 13:22:26;;;;;;;;;;;;;;;;;;5022471;28;20297;-82
2023/06/17 13:24:59;;;;;;;;;;;;;;;;;;5023372;28;19932;-81
2023/06/17 13:27:27;;;;;;;;;;;;;;;;;;5021710;28;19936;-80
2023/06/17 13:30:00;;;;;;;;;;;;;;;;;;4998738;28;19932;-80
2023/06/17 13:32:27;;;;;;;;;;;;;;;;;;5024303;28;19933;-82
2023/06/17 13:34:55;;;;;;;;;;;;;;;;;;5016975;28;19946;-80
2023/06/17 13:37:22;;;;;;;;;;;;;;;;;;5019525;28;19933;-81
2023/06/17 13:39:50;;;;;;;;;;;;;;;;;;5024946;28;20674;-81
2023/06/17 13:42:19;;;;;;;;;;;;;;;;;;5016184;28;19967;-82
2023/06/17 13:44:47;;;;;;;;;;;;;;;;;;5026047;28;19932;-84
2023/06/17 13:47:15;;;;;;;;;;;;;;;;;;5032620;28;19941;-82
2023/06/17 13:49:42;;;;;;;;;;;;;;;;;;5029356;28;19940;-82
2023/06/17 13:52:10;;;;;;;;;;;;;;;;;;5038215;28;19932;-83
2023/06/17 13:54:38;;;;;;;;;;;;;;;;;;5018455;28;19932;-80
2023/06/17 13:57:06;;;;;;;;;;;;;;;;;;5022319;28;19940;-82
2023/06/17 13:59:34;;;;;;;;;;;;;;;;;;5033520;28;19940;-80
2023/06/17 14:02:07;;;;;;;;;;;;;;;;;;5027021;28;19932;-80
2023/06/17 14:04:40;;;;;;;;;;;;;;;;;;5026423;28;20313;-82
2023/06/17 14:07:12;;;;;;;;;;;;;;;;;;5031490;28;19929;-83
2023/06/17 14:09:40;;;;;;;;;;;;;;;;;;5021073;28;20308;-81
2023/06/17 14:12:07;;;;;;;;;;;;;;;;;;5022739;28;19952;-81
2023/06/17 14:14:35;;;;;;;;;;;;;;;;;;5023475;28;19936;-82
2023/06/17 14:17:07;;;;;;;;;;;;;;;;;;5020911;28;19940;-81
2023/06/17 14:19:35;;;;;;;;;;;;;;;;;;5021930;28;19932;-81
2023/06/17 14:22:04;;;;;;;;;;;;;;;;;;5023296;28;19939;-83
2023/06/17 14:24:32;;;;;;;;;;;;;;;;;;5025194;28;19933;-85
2023/06/17 14:26:59;;;;;;;;;;;;;;;;;;5037328;28;20348;-83
2023/06/17 14:29:27;;;;;;;;;;;;;;;;;;5031397;28;19933;-81
2023/06/17 14:32:00;;;;;;;;;;;;;;;;;;5011765;28;19932;-83
2023/06/17 14:34:27;;;;;;;;;;;;;;;;;;5027831;28;19933;-84
2023/06/17 14:36:55;;;;;;;;;;;;;;;;;;5024977;28;19933;-83
2023/06/17 14:39:23;;;;;;;;;;;;;;;;;;5023072;28;20292;-82
2023/06/17 14:41:50;;;;;;;;;;;;;;;;;;5030052;28;19940;-84
2023/06/17 14:44:18;;;;;;;;;;;;;;;;;;5024377;28;19933;-84
2023/06/17 14:46:50;;;;;;;;;;;;;;;;;;5031679;28;20439;-82
2023/06/17 14:49:23;;;;;;;;;;;;;;;;;;5029288;28;19933;-84
2023/06/17 14:51:51;;;;;;;;;;;;;;;;;;5027495;28;19933;-82
2023/06/17 14:54:18;;;;;;;;;;;;;;;;;;5017787;28;19935;-81
2023/06/17 14:56:46;;;;;;;;;;;;;;;;;;5025734;28;19959;-83
2023/06/17 14:59:18;;;;;;;;;;;;;;;;;;5034937;28;20384;-84
2023/06/17 15:01:51;;;;;;;;;;;;;;;;;;5041060;28;19994;-84
2023/06/17 15:04:22;;;;;;;;;;;;;;;;;;5022553;28;19929;-85
2023/06/17 15:06:49;;;;;;;;;;;;;;;;;;5032399;28;19932;-84
2023/06/17 15:09:24;;;;;;;;;;;;;;;;;;5030590;28;20019;-84
2023/06/17 15:11:52;;;;;;;;;;;;;;;;;;5030676;28;20636;-87
2023/06/17 15:14:20;;;;;;;;;;;;;;;;;;5031605;28;19987;-82
2023/06/17 15:16:47;;;;;;;;;;;;;;;;;;5029796;28;19939;-85
2023/06/17 15:19:20;;;;;;;;;;;;;;;;;;5021323;28;19940;-82
2023/06/17 15:21:48;;;;;;;;;;;;;;;;;;5018973;28;19932;-84
2023/06/17 15:24:15;;;;;;;;;;;;;;;;;;5026256;28;19933;-83
2023/06/17 15:26:44;;;;;;;;;;;;;;;;;;5028815;28;19940;-87
2023/06/17 15:29:12;;;;;;;;;;;;;;;;;;5029468;28;20513;-84
2023/06/17 15:31:39;;;;;;;;;;;;;;;;;;5013011;28;19932;-85
2023/06/17 15:34:07;;;;;;;;;;;;;;;;;;5032593;28;20827;-88
2023/06/17 15:36:35;;;;;;;;;;;;;;;;;;5032338;28;19994;-87
2023/06/17 15:39:03;;;;;;;;;;;;;;;;;;5033006;28;20274;-85
2023/06/17 15:41:30;;;;;;;;;;;;;;;;;;5033381;28;19939;-85
2023/06/17 15:43:59;;;;;;;;;;;;;;;;;;5030966;28;20408;-86
2023/06/17 15:46:26;;;;;;;;;;;;;;;;;;5030366;28;20817;-84
2023/06/17 15:48:54;;;;;;;;;;;;;;;;;;5051341;28;19925;-85
2023/06/17 15:51:22;;;;;;;;;;;;;;;;;;5032456;28;19933;-85
2023/06/17 15:53:49;;;;;;;;;;;;;;;;;;5033394;28;21052;-86
2023/06/17 15:56:17;;;;;;;;;;;;;;;;;;5032159;28;19933;-86
2023/06/17 15:58:50;;;;;;;;;;;;;;;;;;5046443;28;19940;-84
2023/06/17 16:01:17;;;;;;;;;;;;;;;;;;5031482;28;19940;-84
2023/06/17 16:03:45;;;;;;;;;;;;;;;;;;5032665;28;19932;-86
2023/06/17 16:06:12;;;;;;;;;;;;;;;;;;5028960;28;19940;-85
2023/06/17 16:08:40;;;;;;;;;;;;;;;;;;5046987;28;20526;-86
2023/06/17 16:11:07;;;;;;;;;;;;;;;;;;5027632;28;19956;-87
2023/06/17 16:13:35;;;;;;;;;;;;;;;;;;5031526;28;19939;-87
2023/06/17 16:16:03;;;;;;;;;;;;;;;;;;5033257;28;19933;-86
2023/06/17 16:18:31;;;;;;;;;;;;;;;;;;5032317;28;19939;-86
2023/06/17 16:20:58;;;;;;;;;;;;;;;;;;5030132;28;19944;-84
2023/06/17 16:23:31;;;;;;;;;;;;;;;;;;5029051;28;19933;-83
2023/06/17 16:25:58;;;;;;;;;;;;;;;;;;5027426;28;19932;-86
2023/06/17 16:28:31;;;;;;;;;;;;;;;;;;5028599;28;19933;-85
2023/06/17 16:30:58;;;;;;;;;;;;;;;;;;5007137;28;19940;-86
2023/06/17 16:33:26;;;;;;;;;;;;;;;;;;5027297;28;19956;-87
2023/06/17 16:35:55;;;;;;;;;;;;;;;;;;5025238;28;19954;-87
2023/06/17 16:38:23;;;;;;;;;;;;;;;;;;5028794;28;20561;-85
2023/06/17 16:40:50;;;;;;;;;;;;;;;;;;5027147;28;19933;-84
2023/06/17 16:43:18;;;;;;;;;;;;;;;;;;5025663;28;19933;-85
2023/06/17 16:45:45;;;;;;;;;;;;;;;;;;5018675;28;21184;-83
2023/06/17 16:48:13;;;;;;;;;;;;;;;;;;5026083;28;19943;-83
2023/06/17 16:50:40;;;;;;;;;;;;;;;;;;5024155;28;19964;-86
2023/06/17 16:53:08;;;;;;;;;;;;;;;;;;5018593;28;19933;-84
2023/06/17 16:55:41;;;;;;;;;;;;;;;;;;5020747;28;20384;-82